sensor_id;sensor_type;location;lat;lon;timestamp;pressure;altitude;pressure_sealevel;temperature;humidity
10978;BME280;5542;48.272;10.794;2023-07-31T00:00:05;95868.66;;;16.49;70.35
10978;BME280;5542;48.272;10.794;2023-07-31T00:02:34;95871.31;;;16.49;70.58
10978;BME280;5542;48.272;10.794;2023-07-31T00:05:02;95869.19;;;16.46;70.67
10978;BME280;5542;48.272;10.794;2023-07-31T00:07:28;95868.09;;;16.42;70.85
10978;BME280;5542;48.272;10.794;2023-07-31T00:09:55;95856.44;;;16.43;70.35
10978;BME280;5542;48.272;10.794;2023-07-31T00:12:23;95864.13;;;16.45;70.01
10978;BME280;5542;48.272;10.794;2023-07-31T00:14:49;95863.31;;;16.34;70.25
10978;BME280;5542;48.272;10.794;2023-07-31T00:17:17;95862.75;;;16.27;70.82
10978;BME280;5542;48.272;10.794;2023-07-31T00:19:43;95862.72;;;16.22;71.18
10978;BME280;5542;48.272;10.794;2023-07-31T00:22:12;95859.81;;;16.23;71.10
10978;BME280;5542;48.272;10.794;2023-07-31T00:24:39;95860.63;;;16.24;70.62
10978;BME280;5542;48.272;10.794;2023-07-31T00:27:05;95861.94;;;16.21;70.68
10978;BME280;5542;48.272;10.794;2023-07-31T00:29:32;95865.34;;;16.11;71.11
10978;BME280;5542;48.272;10.794;2023-07-31T00:31:59;95865.84;;;16.08;71.48
10978;BME280;5542;48.272;10.794;2023-07-31T00:34:26;95855.50;;;16.07;71.32
10978;BME280;5542;48.272;10.794;2023-07-31T00:36:52;95862.41;;;16.03;71.79
10978;BME280;5542;48.272;10.794;2023-07-31T00:39:20;95854.69;;;16.01;72.06
10978;BME280;5542;48.272;10.794;2023-07-31T00:41:47;95854.16;;;15.99;72.21
10978;BME280;5542;48.272;10.794;2023-07-31T00:44:13;95842.22;;;15.97;72.20
10978;BME280;5542;48.272;10.794;2023-07-31T00:46:40;95850.94;;;15.92;72.18
10978;BME280;5542;48.272;10.794;2023-07-31T00:49:07;95846.72;;;15.91;72.47
10978;BME280;5542;48.272;10.794;2023-07-31T00:51:34;95844.56;;;15.88;72.45
10978;BME280;5542;48.272;10.794;2023-07-31T00:54:01;95842.44;;;15.90;72.44
10978;BME280;5542;48.272;10.794;2023-07-31T00:56:30;95838.19;;;15.89;71.96
10978;BME280;5542;48.272;10.794;2023-07-31T00:58:57;95848.78;;;15.84;72.19
10978;BME280;5542;48.272;10.794;2023-07-31T01:01:24;95845.59;;;15.82;72.59
10978;BME280;5542;48.272;10.794;2023-07-31T01:03:52;95839.50;;;15.81;72.74
10978;BME280;5542;48.272;10.794;2023-07-31T01:06:27;95845.03;;;15.80;73.05
10978;BME280;5542;48.272;10.794;2023-07-31T01:09:01;95838.94;;;15.79;72.98
10978;BME280;5542;48.272;10.794;2023-07-31T01:11:32;95833.41;;;15.81;72.56
10978;BME280;5542;48.272;10.794;2023-07-31T01:14:00;95835.50;;;15.79;72.86
10978;BME280;5542;48.272;10.794;2023-07-31T01:16:26;95840.28;;;15.77;73.06
10978;BME280;5542;48.272;10.794;2023-07-31T01:18:53;95835.22;;;15.75;73.25
10978;BME280;5542;48.272;10.794;2023-07-31T01:21:34;95834.69;;;15.78;73.03
10978;BME280;5542;48.272;10.794;2023-07-31T01:24:20;95828.03;;;15.76;72.96
10978;BME280;5542;48.272;10.794;2023-07-31T01:26:55;95828.31;;;15.74;72.95
10978;BME280;5542;48.272;10.794;2023-07-31T01:29:28;95819.03;;;15.72;73.38
10978;BME280;5542;48.272;10.794;2023-07-31T01:32:01;95820.63;;;15.73;73.78
10978;BME280;5542;48.272;10.794;2023-07-31T01:34:28;95814.53;;;15.72;74.13
10978;BME280;5542;48.272;10.794;2023-07-31T01:36:55;95820.38;;;15.74;74.06
10978;BME280;5542;48.272;10.794;2023-07-31T01:39:22;95814.25;;;15.74;74.30
10978;BME280;5542;48.272;10.794;2023-07-31T01:41:50;95810.56;;;15.75;74.33
10978;BME280;5542;48.272;10.794;2023-07-31T01:44:16;95814.00;;;15.75;74.43
10978;BME280;5542;48.272;10.794;2023-07-31T01:46:43;95814.28;;;15.79;74.46
10978;BME280;5542;48.272;10.794;2023-07-31T01:49:09;95814.56;;;15.77;74.58
10978;BME280;5542;48.272;10.794;2023-07-31T01:51:36;95813.19;;;15.75;74.71
10978;BME280;5542;48.272;10.794;2023-07-31T01:54:03;95809.50;;;15.76;74.87
10978;BME280;5542;48.272;10.794;2023-07-31T01:56:29;95808.44;;;15.77;74.85
10978;BME280;5542;48.272;10.794;2023-07-31T01:58:57;95811.91;;;15.77;74.64
10978;BME280;5542;48.272;10.794;2023-07-31T02:01:24;95816.13;;;15.78;74.23
10978;BME280;5542;48.272;10.794;2023-07-31T02:03:50;95815.63;;;15.81;73.68
10978;BME280;5542;48.272;10.794;2023-07-31T02:06:17;95806.03;;;15.70;74.16
10978;BME280;5542;48.272;10.794;2023-07-31T02:08:43;95795.94;;;15.67;74.26
10978;BME280;5542;48.272;10.794;2023-07-31T02:11:10;95791.69;;;15.66;74.60
10978;BME280;5542;48.272;10.794;2023-07-31T02:13:36;95793.81;;;15.64;74.83
10978;BME280;5542;48.272;10.794;2023-07-31T02:16:04;95783.94;;;15.59;75.15
10978;BME280;5542;48.272;10.794;2023-07-31T02:18:31;95781.56;;;15.58;75.20
10978;BME280;5542;48.272;10.794;2023-07-31T02:20:57;95779.16;;;15.56;75.15
10978;BME280;5542;48.272;10.794;2023-07-31T02:23:24;95779.69;;;15.53;75.62
10978;BME280;5542;48.272;10.794;2023-07-31T02:25:51;95777.81;;;15.54;75.90
10978;BME280;5542;48.272;10.794;2023-07-31T02:28:17;95767.28;;;15.64;75.32
10978;BME280;5542;48.272;10.794;2023-07-31T02:30:44;95759.03;;;15.60;75.38
10978;BME280;5542;48.272;10.794;2023-07-31T02:33:13;95766.44;;;15.58;75.66
10978;BME280;5542;48.272;10.794;2023-07-31T02:35:40;95763.00;;;15.58;75.79
10978;BME280;5542;48.272;10.794;2023-07-31T02:38:07;95761.66;;;15.55;75.85
10978;BME280;5542;48.272;10.794;2023-07-31T02:40:33;95758.22;;;15.60;75.72
10978;BME280;5542;48.272;10.794;2023-07-31T02:43:00;95762.72;;;15.54;76.02
10978;BME280;5542;48.272;10.794;2023-07-31T02:45:26;95764.81;;;15.52;76.24
10978;BME280;5542;48.272;10.794;2023-07-31T02:47:53;95764.31;;;15.55;76.16
10978;BME280;5542;48.272;10.794;2023-07-31T02:50:21;95770.16;;;15.57;76.07
10978;BME280;5542;48.272;10.794;2023-07-31T02:52:47;95772.75;;;15.52;76.48
10978;BME280;5542;48.272;10.794;2023-07-31T02:55:14;95768.81;;;15.55;76.69
10978;BME280;5542;48.272;10.794;2023-07-31T02:57:41;95763.22;;;15.51;76.68
10978;BME280;5542;48.272;10.794;2023-07-31T03:00:08;95760.84;;;15.55;77.02
10978;BME280;5542;48.272;10.794;2023-07-31T03:02:34;95756.84;;;15.52;77.17
10978;BME280;5542;48.272;10.794;2023-07-31T03:05:01;95753.69;;;15.50;77.27
10978;BME280;5542;48.272;10.794;2023-07-31T03:07:29;95755.53;;;15.50;77.17
10978;BME280;5542;48.272;10.794;2023-07-31T03:09:56;95761.09;;;15.48;77.08
10978;BME280;5542;48.272;10.794;2023-07-31T03:12:23;95762.44;;;15.56;76.81
10978;BME280;5542;48.272;10.794;2023-07-31T03:14:49;95760.88;;;15.60;76.03
10978;BME280;5542;48.272;10.794;2023-07-31T03:17:16;95757.91;;;15.51;76.47
10978;BME280;5542;48.272;10.794;2023-07-31T03:19:42;95760.06;;;15.54;76.22
10978;BME280;5542;48.272;10.794;2023-07-31T03:22:09;95760.56;;;15.51;76.85
10978;BME280;5542;48.272;10.794;2023-07-31T03:24:37;95754.22;;;15.52;76.95
10978;BME280;5542;48.272;10.794;2023-07-31T03:27:04;95750.53;;;15.58;76.30
10978;BME280;5542;48.272;10.794;2023-07-31T03:29:31;95761.38;;;15.52;76.64
10978;BME280;5542;48.272;10.794;2023-07-31T03:31:57;95764.56;;;15.54;76.46
10978;BME280;5542;48.272;10.794;2023-07-31T03:34:24;95766.69;;;15.57;76.24
10978;BME280;5542;48.272;10.794;2023-07-31T03:36:51;95760.53;;;15.46;76.70
10978;BME280;5542;48.272;10.794;2023-07-31T03:39:18;95759.47;;;15.42;77.17
10978;BME280;5542;48.272;10.794;2023-07-31T03:41:46;95761.56;;;15.35;77.36
10978;BME280;5542;48.272;10.794;2023-07-31T03:44:12;95759.69;;;15.30;77.85
10978;BME280;5542;48.272;10.794;2023-07-31T03:46:39;95760.47;;;15.31;78.03
10978;BME280;5542;48.272;10.794;2023-07-31T03:49:05;95761.78;;;15.28;77.98
10978;BME280;5542;48.272;10.794;2023-07-31T03:51:32;95762.06;;;15.32;77.68
10978;BME280;5542;48.272;10.794;2023-07-31T03:53:58;95758.63;;;15.31;77.35
10978;BME280;5542;48.272;10.794;2023-07-31T03:56:25;95757.31;;;15.29;77.50
10978;BME280;5542;48.272;10.794;2023-07-31T03:58:53;95762.88;;;15.37;76.49
10978;BME280;5542;48.272;10.794;2023-07-31T04:01:19;95761.78;;;15.28;76.92
10978;BME280;5542;48.272;10.794;2023-07-31T04:03:46;95768.94;;;15.28;77.02
10978;BME280;5542;48.272;10.794;2023-07-31T04:06:13;95764.16;;;15.25;77.06
10978;BME280;5542;48.272;10.794;2023-07-31T04:08:43;95759.88;;;15.19;77.26
10978;BME280;5542;48.272;10.794;2023-07-31T04:11:10;95757.22;;;15.19;77.31
10978;BME280;5542;48.272;10.794;2023-07-31T04:13:36;95756.69;;;15.17;77.50
10978;BME280;5542;48.272;10.794;2023-07-31T04:16:04;95753.78;;;15.18;77.50
10978;BME280;5542;48.272;10.794;2023-07-31T04:18:31;95760.69;;;15.19;77.51
10978;BME280;5542;48.272;10.794;2023-07-31T04:20:58;95758.03;;;15.19;77.54
10978;BME280;5542;48.272;10.794;2023-07-31T04:23:26;95749.28;;;15.24;76.68
10978;BME280;5542;48.272;10.794;2023-07-31T04:25:53;95746.63;;;15.19;77.09
10978;BME280;5542;48.272;10.794;2023-07-31T04:28:19;95748.47;;;15.18;77.31
10978;BME280;5542;48.272;10.794;2023-07-31T04:30:46;95738.94;;;15.17;77.35
10978;BME280;5542;48.272;10.794;2023-07-31T04:33:14;95741.84;;;15.16;77.51
10978;BME280;5542;48.272;10.794;2023-07-31T04:35:41;95740.03;;;15.21;77.48
10978;BME280;5542;48.272;10.794;2023-07-31T04:38:07;95739.22;;;15.21;76.66
10978;BME280;5542;48.272;10.794;2023-07-31T04:40:34;95737.06;;;15.13;77.19
10978;BME280;5542;48.272;10.794;2023-07-31T04:43:00;95731.81;;;15.23;76.57
10978;BME280;5542;48.272;10.794;2023-07-31T04:45:27;95728.94;;;15.29;76.22
10978;BME280;5542;48.272;10.794;2023-07-31T04:47:53;95737.88;;;15.18;77.13
10978;BME280;5542;48.272;10.794;2023-07-31T04:50:21;95741.31;;;15.19;77.39
10978;BME280;5542;48.272;10.794;2023-07-31T04:52:48;95741.09;;;15.20;77.50
10978;BME280;5542;48.272;10.794;2023-07-31T04:55:15;95741.88;;;15.21;77.80
10978;BME280;5542;48.272;10.794;2023-07-31T04:57:41;95737.88;;;15.18;78.36
10978;BME280;5542;48.272;10.794;2023-07-31T05:00:08;95741.84;;;15.16;78.45
10978;BME280;5542;48.272;10.794;2023-07-31T05:02:35;95742.22;;;15.34;77.58
10978;BME280;5542;48.272;10.794;2023-07-31T05:05:02;95739.75;;;15.23;78.21
10978;BME280;5542;48.272;10.794;2023-07-31T05:07:30;95736.56;;;15.16;78.60
10978;BME280;5542;48.272;10.794;2023-07-31T05:09:56;95732.34;;;15.20;78.71
10978;BME280;5542;48.272;10.794;2023-07-31T05:12:23;95736.84;;;15.19;79.19
10978;BME280;5542;48.272;10.794;2023-07-31T05:14:49;95732.34;;;15.20;79.78
10978;BME280;5542;48.272;10.794;2023-07-31T05:17:16;95745.28;;;15.16;80.29
10978;BME280;5542;48.272;10.794;2023-07-31T05:19:42;95742.19;;;15.29;80.03
10978;BME280;5542;48.272;10.794;2023-07-31T05:22:09;95745.09;;;15.28;80.15
10978;BME280;5542;48.272;10.794;2023-07-31T05:24:37;95750.16;;;15.29;79.94
10978;BME280;5542;48.272;10.794;2023-07-31T05:27:04;95745.13;;;15.38;80.05
10978;BME280;5542;48.272;10.794;2023-07-31T05:29:31;95745.69;;;15.40;80.35
10978;BME280;5542;48.272;10.794;2023-07-31T05:31:57;95749.72;;;15.53;79.40
10978;BME280;5542;48.272;10.794;2023-07-31T05:34:24;95747.19;;;15.73;78.24
10978;BME280;5542;48.272;10.794;2023-07-31T05:36:50;95752.19;;;15.70;78.71
10978;BME280;5542;48.272;10.794;2023-07-31T05:39:17;95750.16;;;15.92;77.40
10978;BME280;5542;48.272;10.794;2023-07-31T05:41:46;95754.19;;;16.05;75.75
10978;BME280;5542;48.272;10.794;2023-07-31T05:44:12;95747.56;;;16.12;75.35
10978;BME280;5542;48.272;10.794;2023-07-31T05:46:39;95752.34;;;16.16;75.24
10978;BME280;5542;48.272;10.794;2023-07-31T05:49:06;95749.72;;;16.31;74.97
10978;BME280;5542;48.272;10.794;2023-07-31T05:51:33;95750.50;;;16.36;74.53
10978;BME280;5542;48.272;10.794;2023-07-31T05:53:59;95746.25;;;16.25;75.56
10978;BME280;5542;48.272;10.794;2023-07-31T05:56:26;95748.41;;;16.38;75.36
10978;BME280;5542;48.272;10.794;2023-07-31T05:58:54;95743.88;;;16.59;74.05
10978;BME280;5542;48.272;10.794;2023-07-31T06:01:22;95744.41;;;16.56;74.19
10978;BME280;5542;48.272;10.794;2023-07-31T06:03:49;95738.59;;;16.59;73.73
10978;BME280;5542;48.272;10.794;2023-07-31T06:06:15;95740.44;;;16.64;73.06
10978;BME280;5542;48.272;10.794;2023-07-31T06:08:42;95736.44;;;16.61;73.88
10978;BME280;5542;48.272;10.794;2023-07-31T06:11:08;95729.53;;;16.65;73.66
10978;BME280;5542;48.272;10.794;2023-07-31T06:13:35;95722.16;;;16.73;74.03
10978;BME280;5542;48.272;10.794;2023-07-31T06:16:03;95732.78;;;16.73;74.46
10978;BME280;5542;48.272;10.794;2023-07-31T06:18:31;95730.91;;;16.78;74.17
10978;BME280;5542;48.272;10.794;2023-07-31T06:20:58;95727.44;;;16.83;73.29
10978;BME280;5542;48.272;10.794;2023-07-31T06:23:24;95723.47;;;16.85;73.59
10978;BME280;5542;48.272;10.794;2023-07-31T06:25:51;95714.41;;;17.02;73.47
10978;BME280;5542;48.272;10.794;2023-07-31T06:28:17;95718.91;;;17.11;72.44
10978;BME280;5542;48.272;10.794;2023-07-31T06:30:44;95715.75;;;17.04;73.55
10978;BME280;5542;48.272;10.794;2023-07-31T06:33:12;95724.47;;;17.20;72.72
10978;BME280;5542;48.272;10.794;2023-07-31T06:35:39;95722.53;;;17.41;71.96
10978;BME280;5542;48.272;10.794;2023-07-31T06:38:05;95726.53;;;17.44;72.64
10978;BME280;5542;48.272;10.794;2023-07-31T06:40:32;95717.19;;;17.51;71.46
10978;BME280;5542;48.272;10.794;2023-07-31T06:42:59;95711.84;;;17.61;71.66
10978;BME280;5542;48.272;10.794;2023-07-31T06:45:31;95715.25;;;17.77;70.17
10978;BME280;5542;48.272;10.794;2023-07-31T06:47:58;95718.16;;;17.71;71.09
10978;BME280;5542;48.272;10.794;2023-07-31T06:50:28;95725.34;;;17.80;70.39
10978;BME280;5542;48.272;10.794;2023-07-31T06:52:55;95722.34;;;17.92;69.09
10978;BME280;5542;48.272;10.794;2023-07-31T06:55:22;95730.63;;;17.90;70.42
10978;BME280;5542;48.272;10.794;2023-07-31T06:57:50;95737.16;;;18.08;69.24
10978;BME280;5542;48.272;10.794;2023-07-31T07:00:17;95731.47;;;18.25;69.50
10978;BME280;5542;48.272;10.794;2023-07-31T07:02:44;95726.53;;;18.48;68.83
10978;BME280;5542;48.272;10.794;2023-07-31T07:05:13;95731.53;;;18.54;68.01
10978;BME280;5542;48.272;10.794;2023-07-31T07:07:41;95737.00;;;18.73;68.30
10978;BME280;5542;48.272;10.794;2023-07-31T07:10:09;95724.22;;;19.04;65.59
10978;BME280;5542;48.272;10.794;2023-07-31T07:12:36;95717.59;;;19.26;65.02
10978;BME280;5542;48.272;10.794;2023-07-31T07:15:03;95716.72;;;19.54;62.07
10978;BME280;5542;48.272;10.794;2023-07-31T07:17:30;95702.81;;;19.81;62.52
10978;BME280;5542;48.272;10.794;2023-07-31T07:19:57;95699.78;;;19.88;59.43
10978;BME280;5542;48.272;10.794;2023-07-31T07:22:24;95704.50;;;19.96;60.17
10978;BME280;5542;48.272;10.794;2023-07-31T07:24:52;95705.66;;;20.28;58.42
10978;BME280;5542;48.272;10.794;2023-07-31T07:27:18;95700.72;;;20.35;57.71
10978;BME280;5542;48.272;10.794;2023-07-31T07:29:46;95702.69;;;20.29;56.11
10978;BME280;5542;48.272;10.794;2023-07-31T07:32:12;95706.16;;;20.11;58.33
10978;BME280;5542;48.272;10.794;2023-07-31T07:34:39;95700.88;;;20.06;58.83
10978;BME280;5542;48.272;10.794;2023-07-31T07:37:05;95698.44;;;20.09;58.23
10978;BME280;5542;48.272;10.794;2023-07-31T07:39:32;95703.34;;;20.02;59.03
10978;BME280;5542;48.272;10.794;2023-07-31T07:42:00;95700.97;;;20.19;57.98
10978;BME280;5542;48.272;10.794;2023-07-31T07:44:27;95694.84;;;20.00;57.07
10978;BME280;5542;48.272;10.794;2023-07-31T07:46:53;95697.91;;;19.88;57.33
10978;BME280;5542;48.272;10.794;2023-07-31T07:49:20;95707.59;;;19.60;58.46
10978;BME280;5542;48.272;10.794;2023-07-31T07:51:47;95699.06;;;19.58;57.74
10978;BME280;5542;48.272;10.794;2023-07-31T07:54:14;95699.13;;;19.53;58.23
10978;BME280;5542;48.272;10.794;2023-07-31T07:56:42;95697.63;;;19.47;57.87
10978;BME280;5542;48.272;10.794;2023-07-31T07:59:10;95697.63;;;19.47;57.76
10978;BME280;5542;48.272;10.794;2023-07-31T08:01:36;95694.84;;;19.33;58.78
10978;BME280;5542;48.272;10.794;2023-07-31T08:04:03;95703.41;;;19.30;58.70
10978;BME280;5542;48.272;10.794;2023-07-31T08:06:30;95700.78;;;19.25;58.77
10978;BME280;5542;48.272;10.794;2023-07-31T08:08:56;95699.75;;;19.21;59.17
10978;BME280;5542;48.272;10.794;2023-07-31T08:11:23;95701.25;;;19.32;58.30
10978;BME280;5542;48.272;10.794;2023-07-31T08:13:49;95709.59;;;19.26;59.12
10978;BME280;5542;48.272;10.794;2023-07-31T08:16:17;95712.31;;;19.21;60.09
10978;BME280;5542;48.272;10.794;2023-07-31T08:18:44;95711.09;;;19.32;59.70
10978;BME280;5542;48.272;10.794;2023-07-31T08:21:10;95719.81;;;19.42;58.97
10978;BME280;5542;48.272;10.794;2023-07-31T08:23:37;95710.78;;;19.38;58.30
10978;BME280;5542;48.272;10.794;2023-07-31T08:26:03;95712.53;;;19.48;58.10
10978;BME280;5542;48.272;10.794;2023-07-31T08:28:30;95700.56;;;19.69;57.80
10978;BME280;5542;48.272;10.794;2023-07-31T08:30:57;95705.25;;;19.78;57.49
10978;BME280;5542;48.272;10.794;2023-07-31T08:33:24;95706.22;;;19.87;57.21
10978;BME280;5542;48.272;10.794;2023-07-31T08:35:51;95703.06;;;19.85;57.67
10978;BME280;5542;48.272;10.794;2023-07-31T08:38:18;95701.13;;;20.09;55.72
10978;BME280;5542;48.272;10.794;2023-07-31T08:40:44;95702.63;;;20.15;55.74
10978;BME280;5542;48.272;10.794;2023-07-31T08:43:11;95706.94;;;20.30;54.70
10978;BME280;5542;48.272;10.794;2023-07-31T08:45:38;95705.28;;;20.34;53.52
10978;BME280;5542;48.272;10.794;2023-07-31T08:48:08;95703.41;;;20.35;54.35
10978;BME280;5542;48.272;10.794;2023-07-31T08:50:36;95694.69;;;20.48;52.19
10978;BME280;5542;48.272;10.794;2023-07-31T08:53:04;95683.19;;;20.29;52.37
10978;BME280;5542;48.272;10.794;2023-07-31T08:55:32;95677.56;;;20.11;53.86
10978;BME280;5542;48.272;10.794;2023-07-31T08:57:59;95678.81;;;20.19;52.80
10978;BME280;5542;48.272;10.794;2023-07-31T09:00:27;95677.72;;;20.01;53.50
10978;BME280;5542;48.272;10.794;2023-07-31T09:02:59;95673.97;;;20.02;55.43
10978;BME280;5542;48.272;10.794;2023-07-31T09:05:29;95686.19;;;20.08;55.51
10978;BME280;5542;48.272;10.794;2023-07-31T09:08:00;95685.16;;;20.23;53.79
10978;BME280;5542;48.272;10.794;2023-07-31T09:10:28;95676.50;;;20.12;54.75
10978;BME280;5542;48.272;10.794;2023-07-31T09:12:55;95673.16;;;20.20;56.55
10978;BME280;5542;48.272;10.794;2023-07-31T09:15:23;95673.59;;;20.46;53.58
10978;BME280;5542;48.272;10.794;2023-07-31T09:17:59;95672.03;;;20.59;53.78
10978;BME280;5542;48.272;10.794;2023-07-31T09:20:26;95676.06;;;20.76;50.97
10978;BME280;5542;48.272;10.794;2023-07-31T09:22:54;95668.16;;;20.98;52.01
10978;BME280;5542;48.272;10.794;2023-07-31T09:25:23;95664.72;;;21.11;50.66
10978;BME280;5542;48.272;10.794;2023-07-31T09:27:54;95661.56;;;21.09;51.21
10978;BME280;5542;48.272;10.794;2023-07-31T09:30:21;95662.94;;;21.20;51.52
10978;BME280;5542;48.272;10.794;2023-07-31T09:32:50;95651.94;;;21.50;49.21
10978;BME280;5542;48.272;10.794;2023-07-31T09:35:20;95652.69;;;21.78;47.28
10978;BME280;5542;48.272;10.794;2023-07-31T09:37:51;95660.81;;;21.86;51.06
10978;BME280;5542;48.272;10.794;2023-07-31T09:40:29;95645.00;;;22.12;48.91
10978;BME280;5542;48.272;10.794;2023-07-31T09:42:57;95643.75;;;22.32;46.23
10978;BME280;5542;48.272;10.794;2023-07-31T09:45:24;95639.16;;;22.33;49.33
10978;BME280;5542;48.272;10.794;2023-07-31T09:47:50;95620.28;;;22.69;45.60
10978;BME280;5542;48.272;10.794;2023-07-31T09:50:17;95610.91;;;22.80;45.43
10978;BME280;5542;48.272;10.794;2023-07-31T09:52:44;95603.78;;;22.75;44.63
10978;BME280;5542;48.272;10.794;2023-07-31T09:55:11;95608.31;;;22.89;46.88
10978;BME280;5542;48.272;10.794;2023-07-31T09:57:40;95594.91;;;22.97;45.87
10978;BME280;5542;48.272;10.794;2023-07-31T10:00:09;95586.28;;;23.09;45.46
10978;BME280;5542;48.272;10.794;2023-07-31T10:02:37;95596.19;;;23.00;46.55
10978;BME280;5542;48.272;10.794;2023-07-31T10:05:05;95582.16;;;23.03;44.78
10978;BME280;5542;48.272;10.794;2023-07-31T10:07:36;95582.84;;;23.17;44.17
10978;BME280;5542;48.272;10.794;2023-07-31T10:10:04;95576.94;;;23.07;45.43
10978;BME280;5542;48.272;10.794;2023-07-31T10:12:32;95575.41;;;23.14;43.67
10978;BME280;5542;48.272;10.794;2023-07-31T10:15:01;95581.38;;;23.11;43.75
10978;BME280;5542;48.272;10.794;2023-07-31T10:17:29;95578.69;;;23.11;44.05
10978;BME280;5542;48.272;10.794;2023-07-31T10:19:57;95570.84;;;23.23;43.86
10978;BME280;5542;48.272;10.794;2023-07-31T10:22:24;95581.25;;;23.16;42.61
10978;BME280;5542;48.272;10.794;2023-07-31T10:24:52;95583.25;;;22.93;44.57
10978;BME280;5542;48.272;10.794;2023-07-31T10:27:20;95589.63;;;22.53;44.97
10978;BME280;5542;48.272;10.794;2023-07-31T10:29:47;95609.44;;;22.43;46.00
10978;BME280;5542;48.272;10.794;2023-07-31T10:32:17;95603.25;;;22.34;45.59
10978;BME280;5542;48.272;10.794;2023-07-31T10:34:44;95592.53;;;22.34;46.33
10978;BME280;5542;48.272;10.794;2023-07-31T10:37:24;95586.22;;;22.61;47.26
10978;BME280;5542;48.272;10.794;2023-07-31T10:39:59;95573.44;;;22.89;47.28
10978;BME280;5542;48.272;10.794;2023-07-31T10:42:31;95568.50;;;23.22;45.49
10978;BME280;5542;48.272;10.794;2023-07-31T10:44:59;95560.16;;;23.41;44.85
10978;BME280;5542;48.272;10.794;2023-07-31T10:47:27;95558.59;;;23.48;44.50
10978;BME280;5542;48.272;10.794;2023-07-31T10:50:18;95552.94;;;23.67;45.52
10978;BME280;5542;48.272;10.794;2023-07-31T10:52:49;95550.09;;;23.90;43.96
10978;BME280;5542;48.272;10.794;2023-07-31T10:55:24;95561.44;;;23.61;43.31
10978;BME280;5542;48.272;10.794;2023-07-31T10:57:51;95544.38;;;23.48;44.07
10978;BME280;5542;48.272;10.794;2023-07-31T11:00:20;95544.88;;;23.67;43.50
10978;BME280;5542;48.272;10.794;2023-07-31T11:03:01;95552.78;;;23.64;44.61
10978;BME280;5542;48.272;10.794;2023-07-31T11:05:47;95540.16;;;23.64;42.07
10978;BME280;5542;48.272;10.794;2023-07-31T11:08:16;95536.22;;;23.79;42.51
10978;BME280;5542;48.272;10.794;2023-07-31T11:10:45;95536.84;;;23.85;43.20
10978;BME280;5542;48.272;10.794;2023-07-31T11:13:13;95525.94;;;23.90;43.82
10978;BME280;5542;48.272;10.794;2023-07-31T11:15:40;95523.25;;;23.98;43.41
10978;BME280;5542;48.272;10.794;2023-07-31T11:18:08;95513.75;;;24.01;43.07
10978;BME280;5542;48.272;10.794;2023-07-31T11:20:36;95511.81;;;24.36;41.40
10978;BME280;5542;48.272;10.794;2023-07-31T11:23:06;95508.94;;;24.33;41.74
10978;BME280;5542;48.272;10.794;2023-07-31T11:25:33;95502.59;;;24.46;42.10
10978;BME280;5542;48.272;10.794;2023-07-31T11:28:03;95506.34;;;24.53;42.18
10978;BME280;5542;48.272;10.794;2023-07-31T11:30:30;95507.03;;;24.42;41.91
10978;BME280;5542;48.272;10.794;2023-07-31T11:32:57;95498.63;;;24.35;41.05
10978;BME280;5542;48.272;10.794;2023-07-31T11:35:25;95509.94;;;24.11;43.89
10978;BME280;5542;48.272;10.794;2023-07-31T11:37:51;95494.56;;;24.20;42.65
10978;BME280;5542;48.272;10.794;2023-07-31T11:40:18;95489.47;;;24.44;43.75
10978;BME280;5542;48.272;10.794;2023-07-31T11:42:45;95489.44;;;24.53;42.43
10978;BME280;5542;48.272;10.794;2023-07-31T11:45:11;95490.91;;;24.33;42.57
10978;BME280;5542;48.272;10.794;2023-07-31T11:47:38;95484.28;;;24.39;41.19
10978;BME280;5542;48.272;10.794;2023-07-31T11:50:09;95484.88;;;24.45;42.09
10978;BME280;5542;48.272;10.794;2023-07-31T11:52:41;95474.94;;;24.45;42.74
10978;BME280;5542;48.272;10.794;2023-07-31T11:55:09;95481.28;;;24.41;43.43
10978;BME280;5542;48.272;10.794;2023-07-31T11:57:37;95479.81;;;24.52;44.36
10978;BME280;5542;48.272;10.794;2023-07-31T12:00:06;95469.97;;;24.86;41.16
10978;BME280;5542;48.272;10.794;2023-07-31T12:02:33;95477.59;;;24.84;41.89
10978;BME280;5542;48.272;10.794;2023-07-31T12:05:01;95472.88;;;25.10;40.31
10978;BME280;5542;48.272;10.794;2023-07-31T12:07:27;95478.59;;;25.00;42.13
10978;BME280;5542;48.272;10.794;2023-07-31T12:10:10;95484.69;;;25.18;42.06
10978;BME280;5542;48.272;10.794;2023-07-31T12:12:36;95491.25;;;25.29;42.79
10978;BME280;5542;48.272;10.794;2023-07-31T12:15:14;95474.31;;;25.28;39.63
10978;BME280;5542;48.272;10.794;2023-07-31T12:17:40;95469.41;;;25.31;39.84
10978;BME280;5542;48.272;10.794;2023-07-31T12:20:08;95463.28;;;24.92;40.11
10978;BME280;5542;48.272;10.794;2023-07-31T12:22:35;95474.75;;;24.80;41.23
10978;BME280;5542;48.272;10.794;2023-07-31T12:25:02;95474.75;;;24.80;42.47
10978;BME280;5542;48.272;10.794;2023-07-31T12:27:33;95477.72;;;24.87;41.60
10978;BME280;5542;48.272;10.794;2023-07-31T12:29:59;95462.66;;;24.65;39.60
10978;BME280;5542;48.272;10.794;2023-07-31T12:32:30;95461.94;;;24.47;42.32
10978;BME280;5542;48.272;10.794;2023-07-31T12:34:59;95450.59;;;24.42;41.38
10978;BME280;5542;48.272;10.794;2023-07-31T12:37:26;95459.22;;;24.56;42.21
10978;BME280;5542;48.272;10.794;2023-07-31T12:39:53;95446.41;;;24.83;42.44
10978;BME280;5542;48.272;10.794;2023-07-31T12:42:20;95441.69;;;25.09;39.92
10978;BME280;5542;48.272;10.794;2023-07-31T12:44:48;95442.97;;;25.12;40.88
10978;BME280;5542;48.272;10.794;2023-07-31T12:47:14;95438.44;;;24.95;39.38
10978;BME280;5542;48.272;10.794;2023-07-31T12:49:41;95441.13;;;24.74;39.57
10978;BME280;5542;48.272;10.794;2023-07-31T12:52:08;95433.22;;;24.69;39.62
10978;BME280;5542;48.272;10.794;2023-07-31T12:54:34;95437.53;;;24.61;40.21
10978;BME280;5542;48.272;10.794;2023-07-31T12:57:01;95432.97;;;24.53;40.75
10978;BME280;5542;48.272;10.794;2023-07-31T12:59:28;95429.38;;;24.49;41.15
10978;BME280;5542;48.272;10.794;2023-07-31T13:01:56;95430.34;;;24.44;41.59